South Fillmore, Illinois
Current Conditions -  °F | °C
As of 8:15 PM on Sunday 25 Jan 2015 (Local Time) from K3LF Reporting Station
Overcast Overcast  
Wind Chill: 18°   Ceiling: 1100
Heat Index: 31°   Visibility: 10mi
Dew Point: 27°   Wind: 22mph
Humidity: 85%   Direction: 360°N
Pressure: 29.92"   Gusts: 28mph
Location:  39.1009°N, 89.3067°W
Report Text: K3LF 260215Z AUTO 36019G24KT 10SM OVC011 00/M03 A2992 RMK AO2 T10051028
Loading
Personal Weather Stations






























Interactive Weather Map New forecast layout! Learn more

10-Day Weather Forecast

Advertisements
Track Severe Weather on mobile